Time;durP1;ratioP1;P1;durP2;ratioP2;P2;SDS_P1;SDS_P2;PMS_P1;PMS_P2;Temp;Humidity;BMP_temperature;BMP_pressure;BME280_temperature;BME280_humidity;BME280_pressure;Samples;Min_cycle;Max_cycle;Signal;HPM_P1;HPM_P2
2022/01/07 00:02:17;;;;;;;15.13;12.90;;;;;;;7.88;50.71;101526.41;5030008;28;20416;-69
2022/01/07 00:04:44;;;;;;;15.40;13.98;;;;;;;8.01;50.50;101529.19;5029654;28;20445;-69
2022/01/07 00:07:11;;;;;;;15.30;13.77;;;;;;;8.06;50.16;101528.91;5029946;28;20449;-69
2022/01/07 00:09:38;;;;;;;14.48;12.45;;;;;;;7.91;50.61;101528.88;5029617;28;20414;-69
2022/01/07 00:12:06;;;;;;;13.63;12.23;;;;;;;8.02;50.16;101525.59;5029524;28;20797;-69
2022/01/07 00:14:33;;;;;;;12.98;11.15;;;;;;;7.94;50.35;101527.84;5044881;28;20410;-68
2022/01/07 00:17:00;;;;;;;13.13;11.57;;;;;;;7.94;50.21;101525.19;5029555;28;20799;-69
2022/01/07 00:19:29;;;;;;;11.75;10.40;;;;;;;7.85;50.18;101521.31;5029429;28;20903;-69
2022/01/07 00:21:56;;;;;;;11.88;10.63;;;;;;;7.86;50.42;101516.88;5029320;28;20410;-69
2022/01/07 00:24:22;;;;;;;12.32;10.10;;;;;;;7.85;50.38;101515.16;5029618;28;20421;-69
2022/01/07 00:26:49;;;;;;;12.32;10.60;;;;;;;8.01;49.90;101521.25;5029675;28;20410;-68
2022/01/07 00:29:16;;;;;;;11.13;9.93;;;;;;;7.91;49.90;101517.47;5029329;28;20916;-68
2022/01/07 00:31:43;;;;;;;12.85;11.30;;;;;;;8.12;49.34;101532.00;5029217;28;20497;-68
2022/01/07 00:34:10;;;;;;;12.02;10.73;;;;;;;8.15;49.07;101531.84;5029311;28;20449;-69
2022/01/07 00:36:39;;;;;;;13.05;11.05;;;;;;;8.03;49.58;101535.22;5029501;28;20493;-69
2022/01/07 00:39:05;;;;;;;16.08;14.02;;;;;;;8.17;49.43;101540.53;5029298;28;20410;-69
2022/01/07 00:41:32;;;;;;;13.20;11.80;;;;;;;8.14;49.62;101537.22;5029259;28;20416;-69
2022/01/07 00:43:59;;;;;;;13.02;11.30;;;;;;;8.10;49.92;101536.53;5029847;28;20538;-69
2022/01/07 00:46:26;;;;;;;14.02;11.95;;;;;;;8.15;49.95;101531.84;5029398;28;20436;-69
2022/01/07 00:48:53;;;;;;;15.85;11.88;;;;;;;8.12;50.01;101537.28;5029312;28;20514;-69
2022/01/07 00:51:20;;;;;;;13.63;11.32;;;;;;;8.16;50.04;101543.25;5029825;28;20501;-69
2022/01/07 00:53:49;;;;;;;12.70;11.18;;;;;;;8.27;49.54;101527.59;5029380;28;20430;-68
2022/01/07 00:56:16;;;;;;;12.25;10.10;;;;;;;8.18;50.06;101533.44;5029378;28;20418;-69
2022/01/07 00:58:43;;;;;;;11.73;10.60;;;;;;;8.11;49.78;101527.69;5029058;28;20908;-68
2022/01/07 01:01:10;;;;;;;12.07;10.85;;;;;;;8.08;49.79;101527.03;5029280;28;20464;-69
2022/01/07 01:03:37;;;;;;;15.13;13.52;;;;;;;8.17;49.78;101527.31;5029292;28;20488;-69
2022/01/07 01:06:04;;;;;;;12.20;10.90;;;;;;;7.97;50.15;101525.03;5029031;28;20510;-68
2022/01/07 01:08:31;;;;;;;11.30;10.10;;;;;;;8.02;49.98;101523.78;5029513;28;20485;-69
2022/01/07 01:11:00;;;;;;;13.38;11.93;;;;;;;8.17;49.73;101529.97;5028968;28;20441;-69
2022/01/07 01:13:27;;;;;;;12.87;10.80;;;;;;;8.01;49.95;101531.81;5028869;28;20446;-69
2022/01/07 01:15:54;;;;;;;11.27;9.70;;;;;;;8.08;49.82;101533.13;5029266;28;20472;-69
2022/01/07 01:18:21;;;;;;;10.88;9.60;;;;;;;7.88;49.98;101520.28;5029192;28;20414;-69
2022/01/07 01:20:48;;;;;;;11.80;10.00;;;;;;;8.09;49.53;101508.47;5028873;28;20410;-69
2022/01/07 01:23:15;;;;;;;11.38;9.98;;;;;;;8.11;48.90;101511.00;5028824;28;20878;-69
2022/01/07 01:25:42;;;;;;;10.57;8.88;;;;;;;7.94;48.91;101510.19;5029781;28;20493;-69
2022/01/07 01:28:10;;;;;;;10.25;9.20;;;;;;;7.93;48.81;101499.75;5032493;28;20424;-69
2022/01/07 01:30:38;;;;;;;10.07;8.85;;;;;;;7.98;48.33;101498.53;5032751;28;20494;-69
2022/01/07 01:33:05;;;;;;;10.52;9.02;;;;;;;8.20;47.92;101502.53;5032604;28;20469;-69
2022/01/07 01:35:33;;;;;;;10.60;9.20;;;;;;;8.27;47.67;101505.63;5032368;28;20501;-69
2022/01/07 01:38:00;;;;;;;10.35;8.55;;;;;;;8.23;47.63;101508.47;5032659;28;20425;-69
2022/01/07 01:40:26;;;;;;;10.20;8.52;;;;;;;8.21;47.44;101501.56;5031870;28;20517;-69
2022/01/07 01:42:54;;;;;;;10.48;8.60;;;;;;;8.33;47.12;101500.00;5032568;28;20417;-69
2022/01/07 01:45:23;;;;;;;10.73;9.00;;;;;;;8.30;47.20;101505.47;5032166;28;20505;-68
2022/01/07 01:47:50;;;;;;;9.88;8.20;;;;;;;8.30;47.13;101494.91;5032456;28;20413;-69
2022/01/07 01:50:17;;;;;;;8.77;7.88;;;;;;;8.16;47.37;101493.94;5032452;28;20461;-69
2022/01/07 01:52:48;;;;;;;8.93;7.40;;;;;;;8.08;47.22;101485.63;5031939;28;20434;-69
2022/01/07 01:55:17;;;;;;;8.90;8.00;;;;;;;8.15;47.24;101496.66;5032570;28;20457;-68
2022/01/07 01:57:44;;;;;;;10.10;7.90;;;;;;;8.18;47.35;101501.78;5032299;28;20420;-69
2022/01/07 02:00:12;;;;;;;9.00;8.00;;;;;;;8.27;47.09;101505.63;5032517;28;20422;-69
2022/01/07 02:02:41;;;;;;;9.80;8.27;;;;;;;8.34;46.82;101506.97;5031920;28;20513;-69
2022/01/07 02:05:09;;;;;;;9.55;8.27;;;;;;;8.42;46.49;101502.13;5031798;28;20991;-69
2022/01/07 02:07:39;;;;;;;9.55;8.27;;;;;;;8.42;46.95;101499.47;5032047;28;20498;-69
2022/01/07 02:10:09;;;;;;;10.13;8.65;;;;;;;8.18;47.68;101502.63;5014210;28;20505;-69
2022/01/07 02:12:36;;;;;;;9.82;8.70;;;;;;;8.11;47.91;101506.59;5031917;28;20898;-68
2022/01/07 02:15:04;;;;;;;9.88;8.70;;;;;;;8.18;47.81;101507.91;5031650;28;20446;-68
2022/01/07 02:17:31;;;;;;;9.40;8.02;;;;;;;8.11;47.74;101517.13;5031629;28;20406;-68
2022/01/07 02:19:59;;;;;;;11.27;8.68;;;;;;;8.26;47.52;101525.91;5031536;28;20911;-68
2022/01/07 02:22:26;;;;;;;10.48;8.35;;;;;;;8.16;47.86;101525.63;5031477;28;20926;-69
2022/01/07 02:24:54;;;;;;;11.13;8.70;;;;;;;8.21;47.80;101533.25;5031782;28;20420;-69
2022/01/07 02:27:21;;;;;;;9.27;8.23;;;;;;;8.27;47.43;101532.88;5031397;28;20964;-69
2022/01/07 02:29:50;;;;;;;10.10;8.10;;;;;;;8.10;47.82;101525.13;5031690;28;20509;-69
2022/01/07 02:32:18;;;;;;;9.65;7.78;;;;;;;8.23;47.36;101531.38;5031474;28;20497;-69
2022/01/07 02:34:45;;;;;;;9.43;8.00;;;;;;;8.15;47.71;101531.84;5031265;28;20497;-69
2022/01/07 02:37:14;;;;;;;11.45;8.50;;;;;;;8.03;48.28;101529.94;5030416;28;20410;-69
2022/01/07 02:39:41;;;;;;;11.80;9.50;;;;;;;7.90;48.62;101527.16;5031526;28;20415;-69
2022/01/07 02:42:09;;;;;;;10.20;8.57;;;;;;;7.92;48.80;101529.72;5031430;28;20406;-69
2022/01/07 02:44:36;;;;;;;10.23;8.88;;;;;;;7.65;49.60;101526.91;5031404;28;20517;-69
2022/01/07 02:47:04;;;;;;;10.88;9.45;;;;;;;7.72;49.43;101526.44;5031494;28;20501;-69
2022/01/07 02:49:31;;;;;;;10.90;9.45;;;;;;;7.59;49.88;101520.19;5030891;28;20472;-69
2022/01/07 02:51:58;;;;;;;11.52;9.05;;;;;;;7.60;49.91;101524.50;5030977;28;20943;-69
2022/01/07 02:54:26;;;;;;;10.50;9.07;;;;;;;7.65;49.64;101532.19;5030759;28;20470;-69
2022/01/07 02:56:53;;;;;;;10.80;9.48;;;;;;;7.71;49.60;101539.72;5030868;28;20911;-69
2022/01/07 02:59:20;;;;;;;11.55;9.45;;;;;;;7.85;49.42;101544.19;5031131;28;20411;-69
2022/01/07 03:01:48;;;;;;;11.73;9.60;;;;;;;7.78;49.40;101549.81;5030811;28;20445;-68
2022/01/07 03:04:15;;;;;;;11.15;9.40;;;;;;;7.83;49.41;101555.69;5030983;28;20496;-69
2022/01/07 03:06:42;;;;;;;11.40;10.20;;;;;;;7.71;49.58;101555.56;5030694;28;20958;-69
2022/01/07 03:09:09;;;;;;;11.23;10.00;;;;;;;7.86;49.28;101553.81;5030929;28;20497;-69
2022/01/07 03:11:38;;;;;;;13.07;10.52;;;;;;;7.73;49.50;101543.13;5030527;28;20457;-69
2022/01/07 03:14:05;;;;;;;10.82;9.70;;;;;;;7.52;50.04;101542.56;5030510;28;20957;-69
2022/01/07 03:16:31;;;;;;;11.35;9.93;;;;;;;7.74;49.15;101539.53;5012946;28;20406;-69
2022/01/07 03:18:59;;;;;;;11.80;10.27;;;;;;;7.85;49.42;101552.97;5030450;28;20417;-69
2022/01/07 03:21:26;;;;;;;10.30;9.13;;;;;;;7.76;49.44;101558.75;5030139;28;20422;-69
2022/01/07 03:23:53;;;;;;;12.88;9.30;;;;;;;7.69;49.53;101560.91;5030411;28;20429;-69
2022/01/07 03:26:20;;;;;;;12.17;9.87;;;;;;;7.62;49.64;101562.19;5030644;28;20406;-69
2022/01/07 03:28:48;;;;;;;11.57;9.52;;;;;;;7.81;49.19;101557.56;5030228;28;20934;-69
2022/01/07 03:31:15;;;;;;;12.60;11.30;;;;;;;7.80;49.28;101555.84;5030545;28;20493;-69
2022/01/07 03:33:43;;;;;;;11.30;9.65;;;;;;;7.68;49.53;101553.91;5012688;28;20430;-69
2022/01/07 03:36:10;;;;;;;31.42;26.50;;;;;;;7.68;49.52;101556.56;5030394;28;20497;-69
2022/01/07 03:38:37;;;;;;;42.23;34.77;;;;;;;7.81;49.29;101557.56;5030454;28;20511;-69
2022/01/07 03:41:04;;;;;;;18.95;16.90;;;;;;;7.78;49.31;101562.16;5012697;28;20493;-69
2022/01/07 03:43:31;;;;;;;27.85;25.30;;;;;;;7.96;48.93;101566.38;5030047;28;20501;-69
2022/01/07 03:46:00;;;;;;;23.20;20.70;;;;;;;7.81;49.19;101568.13;5029944;28;20445;-69
2022/01/07 03:48:27;;;;;;;15.02;12.18;;;;;;;8.07;48.68;101567.53;5029751;28;20456;-69
2022/01/07 03:50:55;;;;;;;13.32;12.02;;;;;;;7.99;48.80;101575.91;5030228;28;20442;-69
2022/01/07 03:53:24;;;;;;;15.93;14.43;;;;;;;7.87;48.97;101572.19;5030021;28;20509;-69
2022/01/07 03:55:52;;;;;;;12.32;11.02;;;;;;;7.99;48.66;101584.69;5029866;28;20418;-69
2022/01/07 03:58:20;;;;;;;15.48;13.95;;;;;;;8.06;48.68;101590.44;5029821;28;20414;-69
2022/01/07 04:00:47;;;;;;;19.48;17.42;;;;;;;8.19;48.15;101593.19;5029754;28;21003;-69
2022/01/07 04:03:17;;;;;;;19.48;17.48;;;;;;;8.06;48.39;101598.34;5030009;28;20418;-70
2022/01/07 04:05:44;;;;;;;13.93;12.52;;;;;;;8.26;47.92;101604.28;5029685;28;20407;-69
2022/01/07 04:08:12;;;;;;;13.30;11.38;;;;;;;8.38;47.63;101608.81;5029637;28;20505;-69
2022/01/07 04:10:39;;;;;;;13.52;12.05;;;;;;;8.44;47.66;101611.13;5029941;28;20484;-69
2022/01/07 04:13:07;;;;;;;13.60;12.25;;;;;;;8.25;47.61;101605.19;5029529;28;20884;-70
2022/01/07 04:15:34;;;;;;;14.95;13.45;;;;;;;8.44;47.35;101608.50;5029490;28;20498;-70
2022/01/07 04:18:01;;;;;;;14.45;13.00;;;;;;;8.21;47.86;101607.16;5029618;28;20417;-69
2022/01/07 04:20:32;;;;;;;13.55;12.15;;;;;;;8.42;47.14;101605.09;5012504;28;20418;-69
2022/01/07 04:23:00;;;;;;;42.00;36.13;;;;;;;8.61;46.81;101621.53;5029754;28;20414;-69
2022/01/07 04:25:28;;;;;;;15.95;14.45;;;;;;;8.49;47.15;101619.63;5044791;28;20418;-69
2022/01/07 04:28:00;;;;;;;17.73;16.13;;;;;;;8.51;47.10;101620.38;5029640;28;20418;-69
2022/01/07 04:30:30;;;;;;;14.55;12.50;;;;;;;8.53;46.90;101601.81;5029520;28;20498;-70
2022/01/07 04:32:58;;;;;;;13.27;11.98;;;;;;;8.37;47.39;101607.13;5029292;28;20509;-69
2022/01/07 04:35:26;;;;;;;16.52;14.85;;;;;;;8.29;47.51;101618.13;5029556;28;20489;-70
2022/01/07 04:37:55;;;;;;;14.73;13.10;;;;;;;8.20;47.67;101611.59;5029662;28;20418;-69
2022/01/07 04:40:23;;;;;;;19.83;17.83;;;;;;;8.25;47.71;101621.88;5029521;28;20422;-69
2022/01/07 04:42:50;;;;;;;20.92;18.42;;;;;;;8.33;47.26;101627.59;5029944;28;20501;-69
2022/01/07 04:45:17;;;;;;;22.00;18.38;;;;;;;8.23;47.45;101629.91;5029234;28;20907;-69
2022/01/07 04:47:44;;;;;;;19.08;17.05;;;;;;;8.37;47.71;101634.38;5029199;28;20493;-69
2022/01/07 04:50:13;;;;;;;17.45;15.45;;;;;;;8.57;47.69;101630.56;5029547;28;20425;-69
2022/01/07 04:52:41;;;;;;;14.80;13.30;;;;;;;8.60;47.76;101630.41;5029473;28;20514;-69
2022/01/07 04:55:11;;;;;;;15.35;13.85;;;;;;;8.45;47.45;101633.94;5029080;28;20440;-70
2022/01/07 04:57:38;;;;;;;13.80;12.40;;;;;;;8.32;47.43;101636.44;5029415;28;20406;-69
2022/01/07 05:00:07;;;;;;;13.88;12.48;;;;;;;8.38;47.30;101637.88;5029131;28;21020;-69
2022/01/07 05:02:34;;;;;;;18.90;17.10;;;;;;;8.37;47.51;101647.59;5033122;28;20442;-69
2022/01/07 05:05:00;;;;;;;14.80;13.30;;;;;;;8.02;47.96;101641.69;5032990;28;20412;-70
2022/01/07 05:07:28;;;;;;;15.50;13.93;;;;;;;8.21;47.60;101638.84;5032440;28;20520;-69
2022/01/07 05:09:54;;;;;;;14.18;12.68;;;;;;;8.26;47.50;101638.59;5032809;28;20502;-69
2022/01/07 05:12:23;;;;;;;14.50;13.00;;;;;;;8.15;47.56;101655.91;5032798;28;20441;-69
2022/01/07 05:14:50;;;;;;;14.45;12.93;;;;;;;8.15;47.87;101665.59;5032528;28;21007;-69
2022/01/07 05:17:17;;;;;;;16.42;13.98;;;;;;;8.37;47.21;101665.19;5032639;28;20971;-68
2022/01/07 05:19:44;;;;;;;16.40;12.88;;;;;;;8.42;47.07;101661.38;5033043;28;20512;-69
2022/01/07 05:22:11;;;;;;;17.20;15.50;;;;;;;8.42;47.02;101658.75;5033046;28;20846;-69
2022/01/07 05:24:38;;;;;;;17.10;15.38;;;;;;;8.48;46.86;101652.25;5032592;28;20792;-69
2022/01/07 05:27:05;;;;;;;16.90;13.02;;;;;;;8.47;46.98;101662.91;5032582;28;20912;-69
2022/01/07 05:29:35;;;;;;;15.15;13.25;;;;;;;8.49;46.78;101661.03;5032730;28;20414;-69
2022/01/07 05:32:02;;;;;;;14.77;13.18;;;;;;;8.27;47.17;101666.66;5032656;28;20414;-68
2022/01/07 05:34:29;;;;;;;18.02;14.15;;;;;;;8.31;47.13;101665.56;5032039;28;20935;-68
2022/01/07 05:36:56;;;;;;;17.77;15.93;;;;;;;8.29;47.13;101657.72;5032831;28;20442;-69
2022/01/07 05:39:23;;;;;;;18.93;16.07;;;;;;;8.33;47.03;101655.75;5031645;28;20924;-69
2022/01/07 05:41:50;;;;;;;16.33;13.57;;;;;;;8.21;47.06;101663.47;5031935;28;20415;-69
2022/01/07 05:44:18;;;;;;;16.42;13.23;;;;;;;8.19;46.99;101657.44;5014452;28;20429;-69
2022/01/07 05:46:46;;;;;;;15.55;12.10;;;;;;;8.17;46.96;101664.59;5032040;28;20468;-68
2022/01/07 05:49:13;;;;;;;17.85;13.57;;;;;;;8.18;46.89;101658.34;5032085;28;20418;-70
2022/01/07 05:51:41;;;;;;;17.23;12.77;;;;;;;8.36;46.77;101663.50;5031852;28;20429;-70
2022/01/07 05:54:09;;;;;;;17.60;13.50;;;;;;;8.18;46.75;101668.91;5012280;28;20541;-69
2022/01/07 05:56:36;;;;;;;22.65;16.60;;;;;;;8.29;46.58;101676.19;5031145;28;20513;-69
2022/01/07 05:59:03;;;;;;;23.20;17.35;;;;;;;8.36;46.50;101676.72;5031713;28;20500;-69
2022/01/07 06:01:30;;;;;;;20.15;16.63;;;;;;;8.38;46.32;101675.69;5032061;28;20414;-70
2022/01/07 06:03:59;;;;;;;54.00;31.83;;;;;;;8.32;46.56;101680.47;5031568;28;20422;-69
2022/01/07 06:06:27;;;;;;;39.53;27.30;;;;;;;8.42;46.11;101685.16;5031518;28;20493;-69
2022/01/07 06:08:54;;;;;;;28.10;21.92;;;;;;;8.48;45.76;101683.94;5014094;28;20503;-69
2022/01/07 06:11:21;;;;;;;40.40;28.57;;;;;;;8.53;45.73;101678.38;5031343;28;20938;-69
2022/01/07 06:13:48;;;;;;;28.83;22.92;;;;;;;8.41;45.84;101685.22;5031233;28;20434;-69
2022/01/07 06:16:15;;;;;;;34.53;27.23;;;;;;;8.06;46.55;101681.97;5031304;28;20983;-69
2022/01/07 06:18:50;;;;;;;23.60;19.67;;;;;;;8.12;46.47;101678.97;5031427;28;20422;-70
2022/01/07 06:21:19;;;;;;;27.05;21.45;;;;;;;8.23;46.06;101676.56;5031405;28;20788;-69
2022/01/07 06:23:46;;;;;;;38.53;29.42;;;;;;;8.37;45.88;101681.03;5031706;28;20513;-69
2022/01/07 06:26:13;;;;;;;35.65;27.88;;;;;;;8.48;45.71;101681.31;5031494;28;20904;-69
2022/01/07 06:28:40;;;;;;;29.52;22.75;;;;;;;8.42;45.76;101684.31;5031320;28;20912;-69
2022/01/07 06:31:07;;;;;;;27.53;20.40;;;;;;;8.38;45.80;101688.03;5013624;28;20501;-69
2022/01/07 06:33:34;;;;;;;19.67;16.42;;;;;;;8.55;45.32;101695.84;5031339;28;20414;-70
2022/01/07 06:36:01;;;;;;;20.02;14.50;;;;;;;8.54;44.75;101686.22;5031170;28;20904;-69
2022/01/07 06:38:29;;;;;;;18.45;15.25;;;;;;;8.69;44.43;101692.38;5031417;28;20449;-70
2022/01/07 06:40:56;;;;;;;15.27;12.70;;;;;;;8.73;43.96;101696.56;5031153;28;20784;-69
2022/01/07 06:43:23;;;;;;;14.02;12.27;;;;;;;8.68;43.89;101700.41;5031062;28;20426;-69
2022/01/07 06:45:50;;;;;;;14.63;11.88;;;;;;;8.66;43.73;101694.34;5031057;28;20904;-69
2022/01/07 06:48:18;;;;;;;14.60;12.30;;;;;;;8.68;43.45;101698.63;5031157;28;20504;-69
2022/01/07 06:50:45;;;;;;;15.23;12.45;;;;;;;8.61;43.21;101702.56;5031303;28;20426;-70
2022/01/07 06:53:13;;;;;;;23.50;19.27;;;;;;;8.78;42.54;101698.94;5031251;28;20429;-69
2022/01/07 06:55:41;;;;;;;29.63;22.48;;;;;;;8.83;42.15;101705.63;5045969;28;20931;-69
2022/01/07 06:58:08;;;;;;;25.63;22.33;;;;;;;8.63;42.96;101708.59;5030900;28;20418;-69
2022/01/07 07:00:35;;;;;;;20.40;17.45;;;;;;;8.65;43.06;101705.88;5030588;28;20476;-69
2022/01/07 07:03:02;;;;;;;17.88;14.77;;;;;;;8.78;42.85;101705.06;5030733;28;20422;-69
2022/01/07 07:05:29;;;;;;;18.02;13.23;;;;;;;8.66;43.20;101697.00;5030434;28;20421;-69
2022/01/07 07:07:56;;;;;;;17.65;12.65;;;;;;;8.67;43.35;101702.19;5030770;28;20505;-70
2022/01/07 07:10:23;;;;;;;17.65;13.38;;;;;;;8.94;42.86;101705.00;5030250;28;20986;-70
2022/01/07 07:12:51;;;;;;;14.10;11.95;;;;;;;9.20;42.55;101707.84;5030694;28;20425;-69
2022/01/07 07:15:18;;;;;;;15.32;12.50;;;;;;;9.67;41.64;101698.78;5030147;28;21007;-69
2022/01/07 07:17:45;;;;;;;17.55;13.95;;;;;;;9.98;40.88;101710.03;5031050;28;20497;-69
2022/01/07 07:20:13;;;;;;;21.15;17.08;;;;;;;9.96;40.84;101710.13;5030610;28;20480;-69
2022/01/07 07:22:40;;;;;;;28.15;22.13;;;;;;;9.87;40.62;101713.34;5030551;28;20418;-69
2022/01/07 07:25:08;;;;;;;26.25;19.70;;;;;;;9.91;40.36;101712.19;5030122;28;20418;-69
2022/01/07 07:27:36;;;;;;;31.40;26.80;;;;;;;10.15;40.20;101712.41;5030333;28;20501;-69
2022/01/07 07:30:06;;;;;;;36.67;31.15;;;;;;;10.06;39.97;101702.44;5030080;28;20422;-69
2022/01/07 07:32:34;;;;;;;72.95;43.97;;;;;;;9.85;39.96;101699.38;5030116;28;20446;-70
2022/01/07 07:35:13;;;;;;;65.72;43.72;;;;;;;9.97;38.99;101703.03;5029902;28;20430;-69
2022/01/07 07:37:40;;;;;;;23.13;17.92;;;;;;;9.94;38.97;101697.94;5030227;28;20418;-69
2022/01/07 07:40:08;;;;;;;38.65;31.67;;;;;;;9.85;38.49;101703.81;5030214;28;20455;-69
2022/01/07 07:42:35;;;;;;;29.77;25.35;;;;;;;9.78;38.36;101704.22;5028920;28;20418;-70
2022/01/07 07:45:02;;;;;;;30.42;24.30;;;;;;;9.63;38.26;101699.91;5029744;28;20418;-69
2022/01/07 07:47:30;;;;;;;41.03;29.70;;;;;;;9.45;38.49;101698.38;5029730;28;20497;-69
2022/01/07 07:49:58;;;;;;;30.98;23.38;;;;;;;9.40;38.29;101699.53;5027233;28;20417;-69
2022/01/07 07:52:25;;;;;;;31.95;23.20;;;;;;;9.79;37.25;101697.09;5028731;28;20414;-69
2022/01/07 07:54:52;;;;;;;19.58;15.13;;;;;;;9.67;37.24;101688.19;5028803;28;20521;-69
2022/01/07 07:57:21;;;;;;;16.40;12.47;;;;;;;9.49;37.65;101682.25;5029279;28;20414;-70
2022/01/07 07:59:49;;;;;;;15.38;13.75;;;;;;;9.83;37.03;101691.53;5028908;28;21026;-69
2022/01/07 08:02:16;;;;;;;20.73;16.93;;;;;;;10.06;36.23;101690.97;5029200;28;20442;-69
2022/01/07 08:04:44;;;;;;;16.50;13.40;;;;;;;10.18;35.72;101701.66;5029176;28;20477;-69
2022/01/07 08:07:16;;;;;;;18.88;15.38;;;;;;;10.28;35.60;101693.06;5029079;28;20492;-69
2022/01/07 08:09:43;;;;;;;13.70;10.32;;;;;;;10.29;35.29;101703.56;5029019;28;20422;-69
2022/01/07 08:12:19;;;;;;;20.00;15.15;;;;;;;10.48;35.22;101703.22;5028939;28;20505;-69
2022/01/07 08:17:31;;;;;;;15.97;12.40;;;;;;;10.71;34.81;101714.94;5028714;28;20582;-69
2022/01/07 08:19:59;;;;;;;13.20;11.75;;;;;;;10.99;34.18;101723.69;5028624;28;20907;-69
2022/01/07 08:22:26;;;;;;;15.70;12.68;;;;;;;10.99;33.53;101723.69;5028487;28;20796;-69
2022/01/07 08:24:53;;;;;;;12.73;9.43;;;;;;;11.10;33.49;101720.28;5028576;28;20785;-69
2022/01/07 08:27:22;;;;;;;15.32;10.77;;;;;;;11.25;32.87;101724.50;5028308;28;20925;-69
2022/01/07 08:29:49;;;;;;;17.98;14.02;;;;;;;11.49;32.72;101721.94;5028326;28;20915;-69
2022/01/07 08:35:04;;;;;;;18.10;14.50;;;;;;;11.54;31.88;101714.53;5027404;28;20434;-69
2022/01/07 08:37:30;;;;;;;18.88;14.70;;;;;;;11.52;31.55;101712.94;5027915;28;20557;-69
2022/01/07 08:39:59;;;;;;;18.50;16.08;;;;;;;11.65;30.82;101716.41;5028621;28;20475;-69
2022/01/07 08:42:27;;;;;;;26.75;17.63;;;;;;;11.79;30.44;101713.59;5028695;28;20464;-69
2022/01/07 08:44:54;;;;;;;18.33;14.50;;;;;;;13.98;27.52;101723.59;5028157;28;20453;-69
2022/01/07 08:47:25;;;;;;;37.05;27.95;;;;;;;12.98;28.17;101718.97;5028520;28;20418;-69
2022/01/07 08:49:52;;;;;;;23.58;16.05;;;;;;;12.71;28.68;101715.75;4960382;28;1948847;-70
2022/01/07 08:52:21;;;;;;;22.13;10.80;;;;;;;12.90;28.32;101717.88;5028920;28;20409;-68
2022/01/07 08:54:51;;;;;;;34.43;20.17;;;;;;;13.14;27.27;101717.81;5011523;28;20527;-69
2022/01/07 08:57:19;;;;;;;53.13;41.10;;;;;;;14.93;25.00;101715.69;5028794;28;20433;-70
2022/01/07 08:59:46;;;;;;;14.30;11.40;;;;;;;16.16;23.56;101718.28;5028765;28;20461;-69
2022/01/07 09:02:14;;;;;;;14.57;11.10;;;;;;;15.74;23.92;101715.81;5028938;28;20798;-69
2022/01/07 09:04:41;;;;;;;26.15;20.33;;;;;;;14.91;24.20;101722.97;5029082;28;20425;-69
2022/01/07 09:07:08;;;;;;;10.43;8.60;;;;;;;14.01;24.53;101718.84;5028857;28;20410;-71
2022/01/07 09:09:36;;;;;;;20.47;15.40;;;;;;;13.52;24.48;101716.63;5029255;28;20414;-69
2022/01/07 09:12:03;;;;;;;25.38;18.35;;;;;;;13.69;24.40;101713.47;5011415;28;20421;-69
2022/01/07 09:14:31;;;;;;;12.50;8.87;;;;;;;13.29;24.40;101716.63;5028666;28;20517;-69
2022/01/07 09:16:58;;;;;;;12.50;8.68;;;;;;;13.31;24.65;101711.19;5011553;28;20879;-69
2022/01/07 09:19:26;;;;;;;16.80;11.50;;;;;;;13.32;24.66;101713.75;5029198;28;20433;-69
2022/01/07 09:21:55;;;;;;;14.15;8.80;;;;;;;13.14;24.60;101701.84;5028775;28;20851;-69
2022/01/07 09:24:22;;;;;;;15.98;9.27;;;;;;;13.07;24.28;101709.44;5028763;28;20506;-70
2022/01/07 09:26:51;;;;;;;13.80;7.90;;;;;;;12.64;24.74;101704.75;5028645;28;20414;-69
2022/01/07 09:29:17;;;;;;;12.37;7.10;;;;;;;12.64;24.44;101710.06;5028646;28;20410;-69
2022/01/07 09:31:44;;;;;;;19.57;14.23;;;;;;;12.68;24.06;101705.38;5028904;28;20458;-69
2022/01/07 09:34:11;;;;;;;12.13;7.00;;;;;;;12.51;24.25;101704.84;5028849;28;20508;-69
2022/01/07 09:36:38;;;;;;;16.33;12.27;;;;;;;12.76;23.88;101706.47;5028598;28;20491;-70
2022/01/07 09:39:05;;;;;;;13.07;7.95;;;;;;;13.10;23.48;101698.56;5028102;28;20908;-69
2022/01/07 09:41:32;;;;;;;15.35;11.18;;;;;;;13.23;23.77;101703.75;5028549;28;20407;-69
2022/01/07 09:44:01;;;;;;;14.85;10.75;;;;;;;13.17;23.76;101697.09;5028474;28;20410;-69
2022/01/07 09:46:29;;;;;;;11.82;8.00;;;;;;;13.38;23.42;101704.41;5029015;28;20418;-69
2022/01/07 09:48:56;;;;;;;11.63;7.70;;;;;;;13.39;23.01;101700.78;5031963;28;20433;-70
2022/01/07 09:51:26;;;;;;;9.20;6.60;;;;;;;13.72;22.36;101701.72;5014465;28;20792;-70
2022/01/07 09:53:53;;;;;;;9.00;6.43;;;;;;;13.57;22.63;101693.16;5032288;28;20440;-70
2022/01/07 09:56:20;;;;;;;11.52;7.43;;;;;;;13.95;22.35;101699.84;5032045;28;20434;-70
2022/01/07 09:58:47;;;;;;;11.80;7.00;;;;;;;13.87;22.45;101695.16;5032283;28;20406;-71
2022/01/07 10:01:19;;;;;;;12.55;7.72;;;;;;;14.12;22.17;101694.00;5032016;28;20414;-70
2022/01/07 10:03:47;;;;;;;10.80;7.50;;;;;;;13.45;21.38;101696.78;5031837;28;21003;-70
2022/01/07 10:06:21;;;;;;;7.80;4.28;;;;;;;12.92;19.42;101692.03;5031505;28;20422;-70
2022/01/07 10:09:03;;;;;;;6.73;4.40;;;;;;;13.20;19.70;101696.03;5032046;28;20418;-70
2022/01/07 10:11:30;;;;;;;5.68;4.10;;;;;;;12.98;19.47;101688.88;5031881;28;20418;-71
2022/01/07 10:14:18;;;;;;;8.82;5.47;;;;;;;13.03;19.71;101698.19;5031652;28;20912;-70
2022/01/07 10:16:51;;;;;;;8.45;6.22;;;;;;;13.41;20.06;101699.69;5031509;28;20461;-70
2022/01/07 10:19:32;;;;;;;9.90;5.10;;;;;;;13.49;19.81;101692.91;5031495;28;20468;-70
2022/01/07 10:22:01;;;;;;;9.25;6.07;;;;;;;13.21;19.87;101690.56;5031553;28;20410;-69
2022/01/07 10:24:29;;;;;;;7.07;4.15;;;;;;;12.60;20.75;101695.31;5031362;28;20776;-70
2022/01/07 10:27:15;;;;;;;11.50;4.60;;;;;;;12.87;20.40;101689.69;5031152;28;20911;-69
2022/01/07 10:29:43;;;;;;;12.73;4.30;;;;;;;12.52;20.91;101695.06;5013894;28;20418;-69
2022/01/07 10:32:27;;;;;;;14.40;4.50;;;;;;;12.34;20.58;101687.50;5031571;28;20415;-70
2022/01/07 10:35:12;;;;;;;8.98;3.75;;;;;;;12.38;20.69;101686.28;5029468;28;20501;-70
2022/01/07 10:37:48;;;;;;;4.50;3.50;;;;;;;12.19;20.78;101681.53;5031404;28;20461;-70
2022/01/07 10:40:31;;;;;;;5.22;4.30;;;;;;;11.94;21.44;101674.53;5013617;28;20410;-70
2022/01/07 10:43:12;;;;;;;7.37;4.97;;;;;;;11.81;21.67;101682.50;5031031;28;20419;-69
2022/01/07 10:45:41;;;;;;;8.52;4.07;;;;;;;12.15;21.86;101674.75;5031340;28;20419;-69
2022/01/07 10:48:10;;;;;;;10.32;4.35;;;;;;;11.82;22.29;101668.28;5031374;28;20414;-70
2022/01/07 10:50:42;;;;;;;15.85;11.32;;;;;;;12.15;22.10;101672.09;5031321;28;20418;-69
2022/01/07 10:53:21;;;;;;;20.77;14.13;;;;;;;12.15;22.36;101665.94;5031265;28;20414;-69
2022/01/07 10:56:06;;;;;;;12.10;7.95;;;;;;;11.91;22.54;101671.25;5031250;28;20434;-69
2022/01/07 10:58:53;;;;;;;17.80;12.35;;;;;;;12.03;22.46;101668.53;5029482;28;20422;-69
2022/01/07 11:01:32;;;;;;;27.40;17.00;;;;;;;12.07;22.74;101653.22;5030730;28;20420;-70
2022/01/07 11:04:02;;;;;;;18.73;10.13;;;;;;;11.59;23.63;101659.31;5030284;28;20410;-70
2022/01/07 11:06:30;;;;;;;13.32;8.88;;;;;;;11.96;23.05;101659.31;5030640;28;20437;-70
2022/01/07 11:08:59;;;;;;;14.30;9.25;;;;;;;11.55;23.53;101660.47;5030509;28;20958;-69
2022/01/07 11:11:28;;;;;;;35.67;27.57;;;;;;;11.91;23.15;101656.16;5030215;28;20426;-69
2022/01/07 11:14:00;;;;;;;14.68;10.32;;;;;;;12.11;23.23;101645.88;5029972;28;20923;-69
2022/01/07 11:16:27;;;;;;;16.02;12.25;;;;;;;12.42;22.81;101647.06;5030168;28;20945;-69
2022/01/07 11:18:54;;;;;;;14.82;11.55;;;;;;;12.20;23.44;101647.81;5030675;28;20414;-69
2022/01/07 11:21:22;;;;;;;13.13;9.03;;;;;;;12.37;23.52;101654.53;5030229;28;20417;-69
2022/01/07 11:23:49;;;;;;;13.82;9.05;;;;;;;12.71;23.15;101641.31;5030485;28;20421;-69
2022/01/07 11:26:17;;;;;;;12.10;8.13;;;;;;;12.67;23.04;101638.03;5030501;28;20418;-71
2022/01/07 11:28:58;;;;;;;16.30;11.13;;;;;;;12.58;22.99;101633.44;5013093;28;20421;-69
2022/01/07 11:31:25;;;;;;;32.10;19.42;;;;;;;12.43;23.77;101638.13;5030477;28;20414;-70